sensor_id;sensor_type;location;lat;lon;timestamp;temperature;humidity
21787;DHT22;11055;50.870;4.316;2024-02-21T00:00:54;10.00;99.90
21787;DHT22;11055;50.870;4.316;2024-02-21T00:03:27;10.00;99.90
21787;DHT22;11055;50.870;4.316;2024-02-21T00:05:53;10.10;99.90
21787;DHT22;11055;50.870;4.316;2024-02-21T00:08:19;10.10;99.90
21787;DHT22;11055;50.870;4.316;2024-02-21T00:10:44;10.00;99.90
21787;DHT22;11055;50.870;4.316;2024-02-21T00:13:10;10.10;99.90
21787;DHT22;11055;50.870;4.316;2024-02-21T00:15:35;10.10;99.90
21787;DHT22;11055;50.870;4.316;2024-02-21T00:18:01;10.10;99.90
21787;DHT22;11055;50.870;4.316;2024-02-21T00:20:27;10.10;99.90
21787;DHT22;11055;50.870;4.316;2024-02-21T00:22:53;10.00;99.90
21787;DHT22;11055;50.870;4.316;2024-02-21T00:25:20;10.00;99.90
21787;DHT22;11055;50.870;4.316;2024-02-21T00:27:45;10.00;99.90
21787;DHT22;11055;50.870;4.316;2024-02-21T00:30:11;10.00;99.90
21787;DHT22;11055;50.870;4.316;2024-02-21T00:32:39;10.00;99.90
21787;DHT22;11055;50.870;4.316;2024-02-21T00:35:05;10.10;99.90
21787;DHT22;11055;50.870;4.316;2024-02-21T00:37:31;10.10;99.90
21787;DHT22;11055;50.870;4.316;2024-02-21T00:39:58;10.00;99.90
21787;DHT22;11055;50.870;4.316;2024-02-21T00:42:25;10.00;99.90
21787;DHT22;11055;50.870;4.316;2024-02-21T00:44:51;9.90;99.90
21787;DHT22;11055;50.870;4.316;2024-02-21T00:47:16;9.90;99.90
21787;DHT22;11055;50.870;4.316;2024-02-21T00:49:42;10.00;99.90
21787;DHT22;11055;50.870;4.316;2024-02-21T00:52:08;10.00;99.90
21787;DHT22;11055;50.870;4.316;2024-02-21T00:54:33;10.00;99.90
21787;DHT22;11055;50.870;4.316;2024-02-21T00:56:59;10.00;99.90
21787;DHT22;11055;50.870;4.316;2024-02-21T00:59:25;10.00;99.90
21787;DHT22;11055;50.870;4.316;2024-02-21T01:01:50;9.90;99.90
21787;DHT22;11055;50.870;4.316;2024-02-21T01:04:16;9.90;99.90
21787;DHT22;11055;50.870;4.316;2024-02-21T01:06:42;9.80;99.90
21787;DHT22;11055;50.870;4.316;2024-02-21T01:09:10;9.90;99.90
21787;DHT22;11055;50.870;4.316;2024-02-21T01:11:36;9.90;99.90
21787;DHT22;11055;50.870;4.316;2024-02-21T01:14:02;9.90;99.90
21787;DHT22;11055;50.870;4.316;2024-02-21T01:16:28;9.90;99.90
21787;DHT22;11055;50.870;4.316;2024-02-21T01:18:53;9.90;99.90
21787;DHT22;11055;50.870;4.316;2024-02-21T01:21:19;9.80;99.90
21787;DHT22;11055;50.870;4.316;2024-02-21T01:23:44;9.80;99.90
21787;DHT22;11055;50.870;4.316;2024-02-21T01:26:11;9.80;99.90
21787;DHT22;11055;50.870;4.316;2024-02-21T01:28:39;9.80;99.90
21787;DHT22;11055;50.870;4.316;2024-02-21T01:31:05;9.70;99.90
21787;DHT22;11055;50.870;4.316;2024-02-21T01:33:30;9.80;99.90
21787;DHT22;11055;50.870;4.316;2024-02-21T01:36:03;9.80;99.90
21787;DHT22;11055;50.870;4.316;2024-02-21T01:38:29;9.70;99.90
21787;DHT22;11055;50.870;4.316;2024-02-21T01:40:55;9.70;99.90
21787;DHT22;11055;50.870;4.316;2024-02-21T01:43:22;9.60;99.90
21787;DHT22;11055;50.870;4.316;2024-02-21T01:45:52;9.50;99.90
21787;DHT22;11055;50.870;4.316;2024-02-21T01:48:18;9.50;99.90
21787;DHT22;11055;50.870;4.316;2024-02-21T01:50:49;9.40;99.90
21787;DHT22;11055;50.870;4.316;2024-02-21T01:53:21;9.50;99.90
21787;DHT22;11055;50.870;4.316;2024-02-21T01:55:47;9.60;99.90
21787;DHT22;11055;50.870;4.316;2024-02-21T01:58:14;9.60;99.90
21787;DHT22;11055;50.870;4.316;2024-02-21T02:00:44;9.60;99.90
21787;DHT22;11055;50.870;4.316;2024-02-21T02:03:11;9.60;99.90
21787;DHT22;11055;50.870;4.316;2024-02-21T02:05:51;9.70;99.90
21787;DHT22;11055;50.870;4.316;2024-02-21T02:08:19;9.70;99.90
21787;DHT22;11055;50.870;4.316;2024-02-21T02:10:47;9.60;99.90
21787;DHT22;11055;50.870;4.316;2024-02-21T02:13:13;9.50;99.90
21787;DHT22;11055;50.870;4.316;2024-02-21T02:15:42;9.60;99.90
21787;DHT22;11055;50.870;4.316;2024-02-21T02:18:08;9.50;99.90
21787;DHT22;11055;50.870;4.316;2024-02-21T02:20:35;9.60;99.90
21787;DHT22;11055;50.870;4.316;2024-02-21T02:23:07;9.70;99.90
21787;DHT22;11055;50.870;4.316;2024-02-21T02:25:34;9.80;99.90
21787;DHT22;11055;50.870;4.316;2024-02-21T02:28:00;9.80;99.90
21787;DHT22;11055;50.870;4.316;2024-02-21T02:30:25;9.90;99.90
21787;DHT22;11055;50.870;4.316;2024-02-21T02:32:51;10.00;99.90
21787;DHT22;11055;50.870;4.316;2024-02-21T02:35:16;9.90;99.90
21787;DHT22;11055;50.870;4.316;2024-02-21T02:37:49;10.00;99.90
21787;DHT22;11055;50.870;4.316;2024-02-21T02:40:15;10.00;99.90
21787;DHT22;11055;50.870;4.316;2024-02-21T02:42:41;10.00;99.90
21787;DHT22;11055;50.870;4.316;2024-02-21T02:45:07;10.00;99.90
21787;DHT22;11055;50.870;4.316;2024-02-21T02:47:33;9.90;99.90
21787;DHT22;11055;50.870;4.316;2024-02-21T02:50:00;9.80;99.90
21787;DHT22;11055;50.870;4.316;2024-02-21T02:52:26;9.70;99.90
21787;DHT22;11055;50.870;4.316;2024-02-21T02:54:51;9.70;99.90
21787;DHT22;11055;50.870;4.316;2024-02-21T02:57:18;9.70;99.90
21787;DHT22;11055;50.870;4.316;2024-02-21T02:59:51;9.80;99.90
21787;DHT22;11055;50.870;4.316;2024-02-21T03:02:17;9.80;99.90
21787;DHT22;11055;50.870;4.316;2024-02-21T03:04:43;9.80;99.90
21787;DHT22;11055;50.870;4.316;2024-02-21T03:07:09;9.90;99.90
21787;DHT22;11055;50.870;4.316;2024-02-21T03:09:39;9.70;99.90
21787;DHT22;11055;50.870;4.316;2024-02-21T03:12:06;9.50;99.90
21787;DHT22;11055;50.870;4.316;2024-02-21T03:14:32;9.50;99.90
21787;DHT22;11055;50.870;4.316;2024-02-21T03:17:01;9.50;99.90
21787;DHT22;11055;50.870;4.316;2024-02-21T03:19:27;9.50;99.90
21787;DHT22;11055;50.870;4.316;2024-02-21T03:21:54;9.50;99.90
21787;DHT22;11055;50.870;4.316;2024-02-21T03:24:19;9.50;99.90
21787;DHT22;11055;50.870;4.316;2024-02-21T03:26:45;9.60;99.90
21787;DHT22;11055;50.870;4.316;2024-02-21T03:29:14;9.60;99.90
21787;DHT22;11055;50.870;4.316;2024-02-21T03:31:40;9.60;99.90
21787;DHT22;11055;50.870;4.316;2024-02-21T03:34:06;9.70;99.90
21787;DHT22;11055;50.870;4.316;2024-02-21T03:36:31;9.60;99.90
21787;DHT22;11055;50.870;4.316;2024-02-21T03:38:57;9.70;99.90
21787;DHT22;11055;50.870;4.316;2024-02-21T03:41:23;9.60;99.90
21787;DHT22;11055;50.870;4.316;2024-02-21T03:43:48;9.50;99.90
21787;DHT22;11055;50.870;4.316;2024-02-21T03:46:15;9.50;99.90
21787;DHT22;11055;50.870;4.316;2024-02-21T03:48:41;9.50;99.90
21787;DHT22;11055;50.870;4.316;2024-02-21T03:51:06;9.60;99.90
21787;DHT22;11055;50.870;4.316;2024-02-21T03:53:33;9.50;99.90
21787;DHT22;11055;50.870;4.316;2024-02-21T03:56:01;9.60;99.90
21787;DHT22;11055;50.870;4.316;2024-02-21T03:58:32;9.60;99.90
21787;DHT22;11055;50.870;4.316;2024-02-21T04:01:01;9.70;99.90
21787;DHT22;11055;50.870;4.316;2024-02-21T04:03:30;9.80;99.90
21787;DHT22;11055;50.870;4.316;2024-02-21T04:05:56;9.80;99.90
21787;DHT22;11055;50.870;4.316;2024-02-21T04:08:22;9.70;99.90
21787;DHT22;11055;50.870;4.316;2024-02-21T04:10:49;9.70;99.90
21787;DHT22;11055;50.870;4.316;2024-02-21T04:13:15;9.70;99.90
21787;DHT22;11055;50.870;4.316;2024-02-21T04:15:41;9.70;99.90
21787;DHT22;11055;50.870;4.316;2024-02-21T04:18:08;9.70;99.90
21787;DHT22;11055;50.870;4.316;2024-02-21T04:20:34;9.70;99.90
21787;DHT22;11055;50.870;4.316;2024-02-21T04:23:00;9.70;99.90
21787;DHT22;11055;50.870;4.316;2024-02-21T04:25:26;9.60;99.90
21787;DHT22;11055;50.870;4.316;2024-02-21T04:27:51;9.60;99.90
21787;DHT22;11055;50.870;4.316;2024-02-21T04:30:17;9.60;99.90
21787;DHT22;11055;50.870;4.316;2024-02-21T04:32:43;9.60;99.90
21787;DHT22;11055;50.870;4.316;2024-02-21T04:35:09;9.70;99.90
21787;DHT22;11055;50.870;4.316;2024-02-21T04:37:35;9.70;99.90
21787;DHT22;11055;50.870;4.316;2024-02-21T04:40:00;9.60;99.90
21787;DHT22;11055;50.870;4.316;2024-02-21T04:42:26;9.60;99.90
21787;DHT22;11055;50.870;4.316;2024-02-21T04:44:52;9.50;99.90
21787;DHT22;11055;50.870;4.316;2024-02-21T04:47:18;9.60;99.90
21787;DHT22;11055;50.870;4.316;2024-02-21T04:49:46;9.60;99.90
21787;DHT22;11055;50.870;4.316;2024-02-21T04:52:13;9.70;99.90
21787;DHT22;11055;50.870;4.316;2024-02-21T04:54:38;9.60;99.90
21787;DHT22;11055;50.870;4.316;2024-02-21T04:57:04;9.70;99.90
21787;DHT22;11055;50.870;4.316;2024-02-21T04:59:30;9.70;99.90
21787;DHT22;11055;50.870;4.316;2024-02-21T05:01:56;9.60;99.90
21787;DHT22;11055;50.870;4.316;2024-02-21T05:04:21;9.60;99.90
21787;DHT22;11055;50.870;4.316;2024-02-21T05:06:47;9.60;99.90
21787;DHT22;11055;50.870;4.316;2024-02-21T05:09:13;9.60;99.90
21787;DHT22;11055;50.870;4.316;2024-02-21T05:11:39;9.70;99.90
21787;DHT22;11055;50.870;4.316;2024-02-21T05:14:05;9.70;99.90
21787;DHT22;11055;50.870;4.316;2024-02-21T05:16:31;9.70;99.90
21787;DHT22;11055;50.870;4.316;2024-02-21T05:18:58;9.70;99.90
21787;DHT22;11055;50.870;4.316;2024-02-21T05:21:25;9.70;99.90
21787;DHT22;11055;50.870;4.316;2024-02-21T05:23:52;9.60;99.90
21787;DHT22;11055;50.870;4.316;2024-02-21T05:26:25;9.70;99.90
21787;DHT22;11055;50.870;4.316;2024-02-21T05:28:51;9.60;99.90
21787;DHT22;11055;50.870;4.316;2024-02-21T05:31:20;9.70;99.90
21787;DHT22;11055;50.870;4.316;2024-02-21T05:33:46;9.70;99.90
21787;DHT22;11055;50.870;4.316;2024-02-21T05:36:12;9.70;99.90
21787;DHT22;11055;50.870;4.316;2024-02-21T05:38:39;9.80;99.90
21787;DHT22;11055;50.870;4.316;2024-02-21T05:41:05;9.80;99.90
21787;DHT22;11055;50.870;4.316;2024-02-21T05:43:31;9.80;99.90
21787;DHT22;11055;50.870;4.316;2024-02-21T05:45:57;9.70;99.90
21787;DHT22;11055;50.870;4.316;2024-02-21T05:48:24;9.70;99.90
21787;DHT22;11055;50.870;4.316;2024-02-21T05:50:50;9.80;99.90
21787;DHT22;11055;50.870;4.316;2024-02-21T05:53:16;9.90;99.90
21787;DHT22;11055;50.870;4.316;2024-02-21T05:55:42;9.90;99.90
21787;DHT22;11055;50.870;4.316;2024-02-21T05:58:07;9.90;99.90
21787;DHT22;11055;50.870;4.316;2024-02-21T06:00:37;10.00;99.90
21787;DHT22;11055;50.870;4.316;2024-02-21T06:03:03;10.10;99.90
21787;DHT22;11055;50.870;4.316;2024-02-21T06:05:28;10.20;99.90
21787;DHT22;11055;50.870;4.316;2024-02-21T06:07:54;10.20;99.90
21787;DHT22;11055;50.870;4.316;2024-02-21T06:10:21;10.10;99.90
21787;DHT22;11055;50.870;4.316;2024-02-21T06:12:48;10.10;99.90
21787;DHT22;11055;50.870;4.316;2024-02-21T06:15:14;10.00;99.90
21787;DHT22;11055;50.870;4.316;2024-02-21T06:17:39;10.00;99.90
21787;DHT22;11055;50.870;4.316;2024-02-21T06:20:06;10.00;99.90
21787;DHT22;11055;50.870;4.316;2024-02-21T06:22:31;9.90;99.90
21787;DHT22;11055;50.870;4.316;2024-02-21T06:24:57;9.80;99.90
21787;DHT22;11055;50.870;4.316;2024-02-21T06:27:23;9.90;99.90
21787;DHT22;11055;50.870;4.316;2024-02-21T06:29:49;10.00;99.90
21787;DHT22;11055;50.870;4.316;2024-02-21T06:32:15;10.00;99.90
21787;DHT22;11055;50.870;4.316;2024-02-21T06:34:41;10.10;99.90
21787;DHT22;11055;50.870;4.316;2024-02-21T06:37:09;10.10;99.90
21787;DHT22;11055;50.870;4.316;2024-02-21T06:39:37;10.10;99.90
21787;DHT22;11055;50.870;4.316;2024-02-21T06:42:05;10.00;99.90
21787;DHT22;11055;50.870;4.316;2024-02-21T06:44:30;9.90;99.90
21787;DHT22;11055;50.870;4.316;2024-02-21T06:46:57;10.00;99.90
21787;DHT22;11055;50.870;4.316;2024-02-21T06:49:24;9.90;99.90
21787;DHT22;11055;50.870;4.316;2024-02-21T06:51:50;9.80;99.90
21787;DHT22;11055;50.870;4.316;2024-02-21T06:54:15;9.80;99.90
21787;DHT22;11055;50.870;4.316;2024-02-21T06:56:41;9.70;99.90
21787;DHT22;11055;50.870;4.316;2024-02-21T06:59:07;9.70;99.90
21787;DHT22;11055;50.870;4.316;2024-02-21T07:01:33;9.70;99.90
21787;DHT22;11055;50.870;4.316;2024-02-21T07:03:59;9.70;99.90
21787;DHT22;11055;50.870;4.316;2024-02-21T07:06:25;9.80;99.90
21787;DHT22;11055;50.870;4.316;2024-02-21T07:08:51;9.90;99.90
21787;DHT22;11055;50.870;4.316;2024-02-21T07:11:18;9.90;99.90
21787;DHT22;11055;50.870;4.316;2024-02-21T07:13:43;9.70;99.90
21787;DHT22;11055;50.870;4.316;2024-02-21T07:16:09;9.70;99.90
21787;DHT22;11055;50.870;4.316;2024-02-21T07:18:38;9.70;99.90
21787;DHT22;11055;50.870;4.316;2024-02-21T07:21:04;9.80;99.90
21787;DHT22;11055;50.870;4.316;2024-02-21T07:23:30;9.90;99.90
21787;DHT22;11055;50.870;4.316;2024-02-21T07:25:55;9.90;99.90
21787;DHT22;11055;50.870;4.316;2024-02-21T07:28:21;9.90;99.90
21787;DHT22;11055;50.870;4.316;2024-02-21T07:30:47;9.90;99.90
21787;DHT22;11055;50.870;4.316;2024-02-21T07:33:12;9.90;99.90
21787;DHT22;11055;50.870;4.316;2024-02-21T07:35:38;9.80;99.90
21787;DHT22;11055;50.870;4.316;2024-02-21T07:38:06;9.80;99.90
21787;DHT22;11055;50.870;4.316;2024-02-21T07:40:32;9.80;99.90
21787;DHT22;11055;50.870;4.316;2024-02-21T07:42:58;9.70;99.90
21787;DHT22;11055;50.870;4.316;2024-02-21T07:45:24;9.60;99.90
21787;DHT22;11055;50.870;4.316;2024-02-21T07:47:51;9.70;99.90
21787;DHT22;11055;50.870;4.316;2024-02-21T07:50:17;9.70;99.90
21787;DHT22;11055;50.870;4.316;2024-02-21T07:52:43;9.70;99.90
21787;DHT22;11055;50.870;4.316;2024-02-21T07:55:09;9.70;99.90
21787;DHT22;11055;50.870;4.316;2024-02-21T07:57:36;9.70;99.90
21787;DHT22;11055;50.870;4.316;2024-02-21T08:00:02;9.70;99.90
21787;DHT22;11055;50.870;4.316;2024-02-21T08:02:29;9.70;99.90
21787;DHT22;11055;50.870;4.316;2024-02-21T08:04:55;9.80;99.90
21787;DHT22;11055;50.870;4.316;2024-02-21T08:07:22;9.80;99.90
21787;DHT22;11055;50.870;4.316;2024-02-21T08:09:48;9.90;99.90
21787;DHT22;11055;50.870;4.316;2024-02-21T08:12:14;10.00;99.90
21787;DHT22;11055;50.870;4.316;2024-02-21T08:14:41;9.90;99.90
21787;DHT22;11055;50.870;4.316;2024-02-21T08:17:06;9.90;99.90
21787;DHT22;11055;50.870;4.316;2024-02-21T08:19:32;9.80;99.90
21787;DHT22;11055;50.870;4.316;2024-02-21T08:21:58;9.90;99.90
21787;DHT22;11055;50.870;4.316;2024-02-21T08:24:27;9.90;99.90
21787;DHT22;11055;50.870;4.316;2024-02-21T08:26:52;10.00;99.90
21787;DHT22;11055;50.870;4.316;2024-02-21T08:29:18;10.00;99.90
21787;DHT22;11055;50.870;4.316;2024-02-21T08:31:44;10.00;99.90
21787;DHT22;11055;50.870;4.316;2024-02-21T08:34:10;10.00;99.90
21787;DHT22;11055;50.870;4.316;2024-02-21T08:36:36;10.10;99.90
21787;DHT22;11055;50.870;4.316;2024-02-21T08:39:03;10.10;99.90
21787;DHT22;11055;50.870;4.316;2024-02-21T08:41:32;10.10;99.90
21787;DHT22;11055;50.870;4.316;2024-02-21T08:43:58;10.10;99.90
21787;DHT22;11055;50.870;4.316;2024-02-21T08:46:24;10.30;99.90
21787;DHT22;11055;50.870;4.316;2024-02-21T08:48:53;10.30;99.90
21787;DHT22;11055;50.870;4.316;2024-02-21T08:51:21;10.30;99.90
21787;DHT22;11055;50.870;4.316;2024-02-21T08:53:47;10.20;99.90
21787;DHT22;11055;50.870;4.316;2024-02-21T08:56:13;10.10;99.90
21787;DHT22;11055;50.870;4.316;2024-02-21T08:58:39;10.10;99.90
21787;DHT22;11055;50.870;4.316;2024-02-21T09:01:07;10.10;99.90
21787;DHT22;11055;50.870;4.316;2024-02-21T09:03:36;10.20;99.90
21787;DHT22;11055;50.870;4.316;2024-02-21T09:06:03;10.30;99.90
21787;DHT22;11055;50.870;4.316;2024-02-21T09:08:30;10.40;99.90
21787;DHT22;11055;50.870;4.316;2024-02-21T09:10:57;10.40;99.90
21787;DHT22;11055;50.870;4.316;2024-02-21T09:13:22;10.30;99.90
21787;DHT22;11055;50.870;4.316;2024-02-21T09:15:49;10.40;99.90
21787;DHT22;11055;50.870;4.316;2024-02-21T09:18:15;10.50;99.90
21787;DHT22;11055;50.870;4.316;2024-02-21T09:20:43;10.60;99.90
21787;DHT22;11055;50.870;4.316;2024-02-21T09:23:09;10.60;99.90
21787;DHT22;11055;50.870;4.316;2024-02-21T09:25:36;10.50;99.90
21787;DHT22;11055;50.870;4.316;2024-02-21T09:28:02;10.50;99.90
21787;DHT22;11055;50.870;4.316;2024-02-21T09:30:28;10.50;99.90
21787;DHT22;11055;50.870;4.316;2024-02-21T09:32:54;10.60;99.90
21787;DHT22;11055;50.870;4.316;2024-02-21T09:35:20;10.60;99.90
21787;DHT22;11055;50.870;4.316;2024-02-21T09:37:48;10.70;99.90
21787;DHT22;11055;50.870;4.316;2024-02-21T09:40:15;10.60;99.90
21787;DHT22;11055;50.870;4.316;2024-02-21T09:42:44;10.60;99.90
21787;DHT22;11055;50.870;4.316;2024-02-21T09:45:21;10.50;99.90
21787;DHT22;11055;50.870;4.316;2024-02-21T09:50:30;10.70;99.90
21787;DHT22;11055;50.870;4.316;2024-02-21T09:52:58;10.70;99.90
21787;DHT22;11055;50.870;4.316;2024-02-21T09:55:27;10.60;99.90
21787;DHT22;11055;50.870;4.316;2024-02-21T09:57:56;10.70;99.90
21787;DHT22;11055;50.870;4.316;2024-02-21T10:00:23;10.70;99.90
21787;DHT22;11055;50.870;4.316;2024-02-21T10:02:49;10.70;99.90
21787;DHT22;11055;50.870;4.316;2024-02-21T10:05:17;10.70;99.90
21787;DHT22;11055;50.870;4.316;2024-02-21T10:07:43;10.60;99.90
21787;DHT22;11055;50.870;4.316;2024-02-21T10:10:10;10.70;99.90
21787;DHT22;11055;50.870;4.316;2024-02-21T10:12:36;10.70;99.90
21787;DHT22;11055;50.870;4.316;2024-02-21T10:15:02;10.70;99.90
21787;DHT22;11055;50.870;4.316;2024-02-21T10:17:28;10.70;99.90
21787;DHT22;11055;50.870;4.316;2024-02-21T10:19:54;10.80;99.90
21787;DHT22;11055;50.870;4.316;2024-02-21T10:22:20;10.90;99.90
21787;DHT22;11055;50.870;4.316;2024-02-21T10:24:46;10.90;99.90
21787;DHT22;11055;50.870;4.316;2024-02-21T10:27:12;10.90;99.90
21787;DHT22;11055;50.870;4.316;2024-02-21T10:29:39;10.90;99.90
21787;DHT22;11055;50.870;4.316;2024-02-21T10:34:32;11.00;99.90
21787;DHT22;11055;50.870;4.316;2024-02-21T10:37:05;11.00;99.90
21787;DHT22;11055;50.870;4.316;2024-02-21T10:39:32;10.90;99.90
21787;DHT22;11055;50.870;4.316;2024-02-21T10:42:01;10.90;99.90
21787;DHT22;11055;50.870;4.316;2024-02-21T10:44:31;10.90;99.90
21787;DHT22;11055;50.870;4.316;2024-02-21T10:46:57;10.90;99.90
21787;DHT22;11055;50.870;4.316;2024-02-21T10:49:26;11.00;99.90
21787;DHT22;11055;50.870;4.316;2024-02-21T10:54:41;10.90;99.90
21787;DHT22;11055;50.870;4.316;2024-02-21T10:57:10;10.90;99.90
21787;DHT22;11055;50.870;4.316;2024-02-21T10:59:37;11.00;99.90
21787;DHT22;11055;50.870;4.316;2024-02-21T11:02:05;11.00;99.90
21787;DHT22;11055;50.870;4.316;2024-02-21T11:04:32;11.10;99.90
21787;DHT22;11055;50.870;4.316;2024-02-21T11:06:58;11.10;99.90
21787;DHT22;11055;50.870;4.316;2024-02-21T11:09:31;11.10;99.90
21787;DHT22;11055;50.870;4.316;2024-02-21T11:12:04;11.10;99.90
21787;DHT22;11055;50.870;4.316;2024-02-21T11:14:31;11.20;99.90
21787;DHT22;11055;50.870;4.316;2024-02-21T11:17:17;11.30;99.90
21787;DHT22;11055;50.870;4.316;2024-02-21T11:19:43;11.40;99.90
21787;DHT22;11055;50.870;4.316;2024-02-21T11:22:18;11.30;99.90
21787;DHT22;11055;50.870;4.316;2024-02-21T11:24:45;11.30;99.90
21787;DHT22;11055;50.870;4.316;2024-02-21T11:27:22;11.20;99.90
21787;DHT22;11055;50.870;4.316;2024-02-21T11:29:56;11.20;99.90
21787;DHT22;11055;50.870;4.316;2024-02-21T11:32:22;11.30;99.90
21787;DHT22;11055;50.870;4.316;2024-02-21T11:34:57;11.30;99.90
21787;DHT22;11055;50.870;4.316;2024-02-21T11:37:32;11.30;99.90
21787;DHT22;11055;50.870;4.316;2024-02-21T11:40:03;11.20;99.90
21787;DHT22;11055;50.870;4.316;2024-02-21T11:42:29;11.20;99.90
21787;DHT22;11055;50.870;4.316;2024-02-21T11:45:00;11.30;99.90
21787;DHT22;11055;50.870;4.316;2024-02-21T11:47:27;11.40;99.90
21787;DHT22;11055;50.870;4.316;2024-02-21T11:49:53;11.30;99.90
21787;DHT22;11055;50.870;4.316;2024-02-21T11:52:22;11.20;99.90
21787;DHT22;11055;50.870;4.316;2024-02-21T11:54:51;11.10;99.90
21787;DHT22;11055;50.870;4.316;2024-02-21T11:57:18;11.00;99.90
21787;DHT22;11055;50.870;4.316;2024-02-21T11:59:46;11.00;99.90
21787;DHT22;11055;50.870;4.316;2024-02-21T12:02:14;11.20;99.90
21787;DHT22;11055;50.870;4.316;2024-02-21T12:04:40;11.30;99.90
21787;DHT22;11055;50.870;4.316;2024-02-21T12:07:06;11.10;99.90
21787;DHT22;11055;50.870;4.316;2024-02-21T12:09:33;11.10;99.90
21787;DHT22;11055;50.870;4.316;2024-02-21T12:12:03;11.00;99.90
21787;DHT22;11055;50.870;4.316;2024-02-21T12:14:31;10.90;99.90
21787;DHT22;11055;50.870;4.316;2024-02-21T12:16:57;10.90;99.90
21787;DHT22;11055;50.870;4.316;2024-02-21T12:19:24;11.00;99.90
21787;DHT22;11055;50.870;4.316;2024-02-21T12:21:50;11.00;99.90
21787;DHT22;11055;50.870;4.316;2024-02-21T12:24:26;11.00;99.90
21787;DHT22;11055;50.870;4.316;2024-02-21T12:26:53;11.00;99.90
21787;DHT22;11055;50.870;4.316;2024-02-21T12:29:23;11.10;99.90
21787;DHT22;11055;50.870;4.316;2024-02-21T12:31:51;11.10;99.90
21787;DHT22;11055;50.870;4.316;2024-02-21T12:34:17;11.00;99.90
21787;DHT22;11055;50.870;4.316;2024-02-21T12:36:44;11.00;99.90
21787;DHT22;11055;50.870;4.316;2024-02-21T12:39:10;11.00;99.90
21787;DHT22;11055;50.870;4.316;2024-02-21T12:41:36;11.00;99.90
21787;DHT22;11055;50.870;4.316;2024-02-21T12:44:06;11.10;99.90
21787;DHT22;11055;50.870;4.316;2024-02-21T12:46:36;11.20;99.90
21787;DHT22;11055;50.870;4.316;2024-02-21T12:49:03;11.20;99.90
21787;DHT22;11055;50.870;4.316;2024-02-21T12:51:29;11.30;99.90
21787;DHT22;11055;50.870;4.316;2024-02-21T12:53:55;11.40;99.90
21787;DHT22;11055;50.870;4.316;2024-02-21T12:56:21;11.40;99.90
21787;DHT22;11055;50.870;4.316;2024-02-21T12:58:47;11.30;99.90
21787;DHT22;11055;50.870;4.316;2024-02-21T13:01:13;11.40;99.90
21787;DHT22;11055;50.870;4.316;2024-02-21T13:03:38;11.40;99.90
21787;DHT22;11055;50.870;4.316;2024-02-21T13:06:05;11.50;99.90
21787;DHT22;11055;50.870;4.316;2024-02-21T13:08:31;11.50;99.90
21787;DHT22;11055;50.870;4.316;2024-02-21T13:10:56;11.60;99.90
21787;DHT22;11055;50.870;4.316;2024-02-21T13:13:22;11.50;99.90
21787;DHT22;11055;50.870;4.316;2024-02-21T13:15:48;11.50;99.90
21787;DHT22;11055;50.870;4.316;2024-02-21T13:18:13;11.40;99.90
21787;DHT22;11055;50.870;4.316;2024-02-21T13:20:39;11.40;99.90
21787;DHT22;11055;50.870;4.316;2024-02-21T13:23:05;11.60;99.90
21787;DHT22;11055;50.870;4.316;2024-02-21T13:25:30;11.50;99.90
21787;DHT22;11055;50.870;4.316;2024-02-21T13:27:57;11.50;99.90
21787;DHT22;11055;50.870;4.316;2024-02-21T13:30:23;11.60;99.90
21787;DHT22;11055;50.870;4.316;2024-02-21T13:32:50;11.50;99.90
21787;DHT22;11055;50.870;4.316;2024-02-21T13:35:16;11.40;99.90
21787;DHT22;11055;50.870;4.316;2024-02-21T13:37:42;11.30;99.90
21787;DHT22;11055;50.870;4.316;2024-02-21T13:40:08;11.40;99.90
21787;DHT22;11055;50.870;4.316;2024-02-21T13:42:37;11.30;99.90
21787;DHT22;11055;50.870;4.316;2024-02-21T13:45:04;11.30;99.90
21787;DHT22;11055;50.870;4.316;2024-02-21T13:47:36;11.30;99.90
21787;DHT22;11055;50.870;4.316;2024-02-21T13:50:02;11.30;99.90
21787;DHT22;11055;50.870;4.316;2024-02-21T13:52:34;11.30;99.90
21787;DHT22;11055;50.870;4.316;2024-02-21T13:55:01;11.20;99.90
21787;DHT22;11055;50.870;4.316;2024-02-21T13:57:28;11.10;99.90
21787;DHT22;11055;50.870;4.316;2024-02-21T13:59:54;11.10;99.90
21787;DHT22;11055;50.870;4.316;2024-02-21T14:02:19;11.00;99.90
21787;DHT22;11055;50.870;4.316;2024-02-21T14:04:47;11.00;99.90
21787;DHT22;11055;50.870;4.316;2024-02-21T14:07:13;10.90;99.90
21787;DHT22;11055;50.870;4.316;2024-02-21T14:09:38;11.00;99.90
21787;DHT22;11055;50.870;4.316;2024-02-21T14:12:04;11.00;99.90
21787;DHT22;11055;50.870;4.316;2024-02-21T14:14:34;11.00;99.90
21787;DHT22;11055;50.870;4.316;2024-02-21T14:17:01;11.00;99.90
21787;DHT22;11055;50.870;4.316;2024-02-21T14:19:26;11.00;99.90
21787;DHT22;11055;50.870;4.316;2024-02-21T14:21:52;10.90;99.90
21787;DHT22;11055;50.870;4.316;2024-02-21T14:24:18;10.90;99.90
21787;DHT22;11055;50.870;4.316;2024-02-21T14:26:44;10.90;99.90
21787;DHT22;11055;50.870;4.316;2024-02-21T14:29:10;11.00;99.90
21787;DHT22;11055;50.870;4.316;2024-02-21T14:31:35;10.90;99.90
21787;DHT22;11055;50.870;4.316;2024-02-21T14:34:01;10.80;99.90
21787;DHT22;11055;50.870;4.316;2024-02-21T14:36:27;10.80;99.90
21787;DHT22;11055;50.870;4.316;2024-02-21T14:38:53;10.80;99.90
21787;DHT22;11055;50.870;4.316;2024-02-21T14:41:19;10.80;99.90
21787;DHT22;11055;50.870;4.316;2024-02-21T14:43:45;10.80;99.90
21787;DHT22;11055;50.870;4.316;2024-02-21T14:46:12;10.80;99.90
21787;DHT22;11055;50.870;4.316;2024-02-21T14:48:39;10.70;99.90
21787;DHT22;11055;50.870;4.316;2024-02-21T14:51:05;10.60;99.90
21787;DHT22;11055;50.870;4.316;2024-02-21T14:53:30;10.70;99.90
21787;DHT22;11055;50.870;4.316;2024-02-21T14:55:56;10.70;99.90
21787;DHT22;11055;50.870;4.316;2024-02-21T14:58:23;10.60;99.90
21787;DHT22;11055;50.870;4.316;2024-02-21T15:00:49;10.60;99.90
21787;DHT22;11055;50.870;4.316;2024-02-21T15:03:16;10.50;99.90
21787;DHT22;11055;50.870;4.316;2024-02-21T15:05:46;10.50;99.90
21787;DHT22;11055;50.870;4.316;2024-02-21T15:08:12;10.50;99.90
21787;DHT22;11055;50.870;4.316;2024-02-21T15:10:38;10.50;99.90
21787;DHT22;11055;50.870;4.316;2024-02-21T15:13:04;10.40;99.90
21787;DHT22;11055;50.870;4.316;2024-02-21T15:15:30;10.40;99.90
21787;DHT22;11055;50.870;4.316;2024-02-21T15:17:56;10.30;99.90
21787;DHT22;11055;50.870;4.316;2024-02-21T15:20:22;10.30;99.90
21787;DHT22;11055;50.870;4.316;2024-02-21T15:22:47;10.30;99.90
21787;DHT22;11055;50.870;4.316;2024-02-21T15:25:14;10.20;99.90
21787;DHT22;11055;50.870;4.316;2024-02-21T15:27:44;10.30;99.90
21787;DHT22;11055;50.870;4.316;2024-02-21T15:30:11;10.30;99.90
21787;DHT22;11055;50.870;4.316;2024-02-21T15:32:40;10.20;99.90
21787;DHT22;11055;50.870;4.316;2024-02-21T15:35:08;10.30;99.90
21787;DHT22;11055;50.870;4.316;2024-02-21T15:37:35;10.30;99.90
21787;DHT22;11055;50.870;4.316;2024-02-21T15:40:01;10.20;99.90
21787;DHT22;11055;50.870;4.316;2024-02-21T15:42:28;10.20;99.90